Time;durP1;ratioP1;P1;durP2;ratioP2;P2;SDS_P1;SDS_P2;PMS_P1;PMS_P2;Temp;Humidity;BMP_temperature;BMP_pressure;BME280_temperature;BME280_humidity;BME280_pressure;Samples;Min_cycle;Max_cycle;Signal;HPM_P1;HPM_P2
2022/08/21 00:00:00;;;;;;;11.47;9.70;;;18.60;1.00;;;;;;6249568;22;20416;-86
2022/08/21 00:02:27;;;;;;;13.50;10.73;;;18.70;1.00;;;;;;6248524;22;20377;-87
2022/08/21 00:04:53;;;;;;;15.20;10.33;;;18.60;1.00;;;;;;6249167;22;20410;-85
2022/08/21 00:07:20;;;;;;;16.70;9.17;;;18.60;1.00;;;;;;6248678;22;20388;-85
2022/08/21 00:09:46;;;;;;;12.80;8.93;;;18.60;1.00;;;;;;6249121;22;20401;-85
2022/08/21 00:12:12;;;;;;;11.80;10.57;;;18.50;1.00;;;;;;6249642;22;20784;-85
2022/08/21 00:14:38;;;;;;;11.30;10.10;;;18.50;1.00;;;;;;6249081;22;20185;-85
2022/08/21 00:17:05;;;;;;;15.27;10.50;;;18.50;1.00;;;;;;6248807;22;20386;-85
2022/08/21 00:19:32;;;;;;;14.00;10.03;;;18.50;18.10;;;;;;6249065;22;20158;-85
2022/08/21 00:22:03;;;;;;;18.23;11.90;;;18.40;94.00;;;;;;6248821;22;20384;-86
2022/08/21 00:24:29;;;;;;;13.77;11.27;;;18.40;99.90;;;;;;6276563;22;20392;-84
2022/08/21 00:26:55;;;;;;;16.23;12.10;;;18.40;99.90;;;;;;6248287;22;20397;-85
2022/08/21 00:29:21;;;;;;;16.27;11.40;;;18.40;99.90;;;;;;6249389;22;20156;-86
2022/08/21 00:31:47;;;;;;;12.97;11.70;;;18.30;99.90;;;;;;6249256;22;20189;-85
2022/08/21 00:34:13;;;;;;;18.07;12.10;;;18.30;99.90;;;;;;6248663;22;20468;-85
2022/08/21 00:36:39;;;;;;;15.67;11.63;;;18.20;99.90;;;;;;6248298;22;20188;-85
2022/08/21 00:39:07;;;;;;;19.40;12.60;;;18.20;99.90;;;;;;6248753;22;20400;-85
2022/08/21 00:41:35;;;;;;;13.60;12.20;;;18.20;99.90;;;;;;6248843;22;20376;-85
2022/08/21 00:44:00;;;;;;;15.40;12.00;;;18.10;99.90;;;;;;6248424;22;20409;-85
2022/08/21 00:46:26;;;;;;;17.97;12.47;;;18.00;99.90;;;;;;6248237;22;20491;-85
2022/08/21 00:48:52;;;;;;;15.60;11.73;;;18.00;1.00;;;;;;6249383;22;20531;-85
2022/08/21 00:51:25;;;;;;;13.23;11.30;;;18.00;1.00;;;;;;6248418;22;20502;-87
2022/08/21 00:53:55;;;;;;;16.90;11.30;;;17.90;1.00;;;;;;6248494;22;20180;-85
2022/08/21 00:56:23;;;;;;;15.47;11.43;;;17.90;1.00;;;;;;6248044;22;20453;-89
2022/08/21 00:58:48;;;;;;;15.80;12.07;;;17.80;1.00;;;;;;6247109;22;20470;-85
2022/08/21 01:01:15;;;;;;;11.80;10.60;;;17.80;1.00;;;;;;6275341;22;20805;-85
2022/08/21 01:03:41;;;;;;;13.00;11.27;;;17.70;1.00;;;;;;6249367;22;20255;-85
2022/08/21 01:06:07;;;;;;;12.10;10.90;;;17.70;1.00;;;;;;6248472;22;20433;-85
2022/08/21 01:08:33;;;;;;;17.53;11.50;;;17.60;1.00;;;;;;6247963;22;20403;-85
2022/08/21 01:11:00;;;;;;;12.10;10.10;;;17.60;1.00;;;;;;6248334;22;20390;-84
2022/08/21 01:13:28;;;;;;;14.97;10.83;;;17.60;1.00;;;;;;6275743;22;20448;-85
2022/08/21 01:15:59;;;;;;;14.03;10.60;;;17.50;4.90;;;;;;6248713;22;20423;-85
2022/08/21 01:18:25;;;;;;;11.30;8.63;;;17.50;41.80;;;;;;6248331;22;20477;-85
2022/08/21 01:21:15;;;;;;;10.67;9.67;;;17.50;79.80;;;;;;6275904;22;20371;-85
2022/08/21 01:23:43;;;;;;;14.00;8.23;;;17.40;99.90;;;;;;6249028;22;20880;-85
2022/08/21 01:26:11;;;;;;;12.93;8.67;;;17.40;99.90;;;;;;6248592;22;20378;-85
2022/08/21 01:28:43;;;;;;;9.93;8.53;;;17.40;99.90;;;;;;6248390;22;20390;-85
2022/08/21 01:31:12;;;;;;;15.10;9.13;;;17.30;99.90;;;;;;6248971;22;20715;-85
2022/08/21 01:33:37;;;;;;;12.90;8.30;;;17.30;99.90;;;;;;6248434;22;20778;-85
2022/08/21 01:36:04;;;;;;;11.93;8.53;;;17.30;99.90;;;;;;6247203;22;20422;-85
2022/08/21 01:38:29;;;;;;;13.43;8.10;;;17.30;99.90;;;;;;6247515;22;20158;-85
2022/08/21 01:40:55;;;;;;;15.40;7.37;;;17.20;99.90;;;;;;6248361;22;20418;-85
2022/08/21 01:43:20;;;;;;;9.97;7.37;;;17.20;99.90;;;;;;6275219;22;20596;-86
2022/08/21 01:45:46;;;;;;;15.37;8.40;;;17.20;99.90;;;;;;6248335;22;20167;-85
2022/08/21 01:48:12;;;;;;;14.00;8.27;;;17.10;99.90;;;;;;6248354;22;20531;-85
2022/08/21 01:50:37;;;;;;;12.43;7.07;;;17.10;99.90;;;;;;6248030;22;20159;-86
2022/08/21 01:53:03;;;;;;;15.10;6.80;;;17.10;99.90;;;;;;6247637;22;20178;-85
2022/08/21 01:55:29;;;;;;;14.10;7.30;;;17.10;99.90;;;;;;6248082;22;20279;-86
2022/08/21 01:57:57;;;;;;;15.27;7.47;;;17.10;85.80;;;;;;6247059;22;20387;-85
2022/08/21 02:00:23;;;;;;;13.23;7.60;;;17.10;65.30;;;;;;6248377;22;20581;-85
2022/08/21 02:02:49;;;;;;;15.07;7.20;;;17.10;40.30;;;;;;6247605;22;20437;-86
2022/08/21 02:05:15;;;;;;;12.13;7.17;;;17.10;23.10;;;;;;6248015;22;20865;-85
2022/08/21 02:07:44;;;;;;;9.17;6.97;;;17.10;14.10;;;;;;6247045;22;20521;-85
2022/08/21 02:10:12;;;;;;;11.13;7.10;;;17.00;1.10;;;;;;6247788;22;20470;-85
2022/08/21 02:12:37;;;;;;;15.27;7.40;;;17.10;1.00;;;;;;6274779;22;20470;-86
2022/08/21 02:15:05;;;;;;;10.53;6.77;;;17.00;1.00;;;;;;6247969;22;20442;-85
2022/08/21 02:17:59;;;;;;;9.47;6.53;;;17.00;1.00;;;;;;6273975;22;20208;-85
2022/08/21 02:20:35;;;;;;;12.17;6.90;;;17.00;1.00;;;;;;6243328;22;20391;-89
2022/08/21 02:23:01;;;;;;;12.87;6.17;;;17.00;1.00;;;;;;6248399;22;20959;-85
2022/08/21 02:25:28;;;;;;;10.57;5.90;;;17.00;1.00;;;;;;6247478;22;20379;-87
2022/08/21 02:27:54;;;;;;;12.97;6.67;;;16.90;1.00;;;;;;6274524;22;20191;-85
2022/08/21 02:30:26;;;;;;;19.23;7.53;;;16.90;1.00;;;;;;6247693;22;20387;-86
2022/08/21 02:32:52;;;;;;;11.60;6.50;;;16.90;1.00;;;;;;6274878;22;20460;-85
2022/08/21 02:35:18;;;;;;;10.20;6.50;;;16.80;1.00;;;;;;6247769;22;20423;-85
2022/08/21 02:37:51;;;;;;;8.43;5.87;;;16.80;1.00;;;;;;6247185;22;20541;-86
2022/08/21 02:40:19;;;;;;;13.80;6.37;;;16.80;2.20;;;;;;6247036;22;20375;-86
2022/08/21 02:42:45;;;;;;;9.73;6.40;;;16.80;1.00;;;;;;6246695;22;20753;-85
2022/08/21 02:45:12;;;;;;;9.17;6.30;;;16.70;1.00;;;;;;6249101;22;20447;-88
2022/08/21 02:47:38;;;;;;;11.13;6.30;;;16.70;6.70;;;;;;6247387;22;20169;-85
2022/08/21 02:50:05;;;;;;;11.87;6.33;;;16.70;32.50;;;;;;6249091;22;20883;-87
2022/08/21 02:52:30;;;;;;;11.73;6.93;;;16.70;96.60;;;;;;6247972;22;20167;-87
2022/08/21 02:54:56;;;;;;;11.47;6.13;;;16.60;99.90;;;;;;6248058;22;20491;-85
2022/08/21 02:57:22;;;;;;;8.97;5.80;;;16.60;99.90;;;;;;6248076;22;20163;-87
2022/08/21 02:59:47;;;;;;;10.87;6.57;;;16.60;99.90;;;;;;6248302;22;20166;-85
2022/08/21 03:02:13;;;;;;;7.60;5.90;;;16.60;99.90;;;;;;6248337;22;20158;-85
2022/08/21 03:04:39;;;;;;;8.77;5.80;;;16.50;99.90;;;;;;6247580;22;20202;-85
2022/08/21 03:07:04;;;;;;;6.83;5.93;;;16.50;99.90;;;;;;6247682;22;20214;-86
2022/08/21 03:09:30;;;;;;;7.80;6.10;;;16.50;99.90;;;;;;6247705;22;20167;-87
2022/08/21 03:11:55;;;;;;;8.90;6.50;;;16.50;99.90;;;;;;6275607;22;20523;-85
2022/08/21 03:14:21;;;;;;;5.77;5.10;;;16.50;99.90;;;;;;6247682;22;20188;-86
2022/08/21 03:16:46;;;;;;;15.93;5.43;;;16.50;21.60;;;;;;6246718;22;20151;-85
2022/08/21 03:19:12;;;;;;;7.37;5.07;;;16.60;1.00;;;;;;6247924;22;20271;-85
2022/08/21 03:21:38;;;;;;;8.27;5.40;;;16.60;1.00;;;;;;6247662;22;20242;-85
2022/08/21 03:24:04;;;;;;;10.90;5.50;;;16.60;1.00;;;;;;6249923;22;20399;-85
2022/08/21 03:26:30;;;;;;;9.13;4.73;;;16.60;1.00;;;;;;6249427;22;20515;-89
2022/08/21 03:28:57;;;;;;;13.33;5.43;;;16.60;1.00;;;;;;6249610;22;20397;-85
2022/08/21 03:31:23;;;;;;;8.60;4.97;;;16.60;99.90;;;;;;6250251;22;20386;-87
2022/08/21 03:33:49;;;;;;;8.53;5.37;;;16.70;99.90;;;;;;6249704;22;20441;-85
2022/08/21 03:36:15;;;;;;;15.43;5.20;;;16.70;99.90;;;;;;6248905;22;20425;-86
2022/08/21 03:38:41;;;;;;;6.60;4.93;;;16.70;99.90;;;;;;6249537;22;20254;-86
2022/08/21 03:41:07;;;;;;;7.17;5.40;;;16.70;99.90;;;;;;6249417;22;20389;-86
2022/08/21 03:43:33;;;;;;;12.17;5.80;;;16.60;99.90;;;;;;6249281;22;20480;-87
2022/08/21 03:46:01;;;;;;;16.33;5.40;;;16.60;99.90;;;;;;6249731;22;20160;-85
2022/08/21 03:48:28;;;;;;;15.37;5.17;;;16.60;99.90;;;;;;6249332;22;20466;-86
2022/08/21 03:50:54;;;;;;;14.37;5.53;;;16.60;99.90;;;;;;6249635;22;20414;-86
2022/08/21 03:53:19;;;;;;;10.07;5.27;;;16.50;99.90;;;;;;6249038;22;20406;-85
2022/08/21 03:55:48;;;;;;;15.30;6.40;;;16.50;99.90;;;;;;6249310;22;20277;-85
2022/08/21 03:58:18;;;;;;;9.67;5.40;;;16.50;99.90;;;;;;6248960;22;20386;-85
2022/08/21 04:00:49;;;;;;;8.77;5.70;;;16.40;99.90;;;;;;6249439;22;20386;-86
2022/08/21 04:03:17;;;;;;;8.73;5.60;;;16.40;99.90;;;;;;6249622;22;20884;-85
2022/08/21 04:05:44;;;;;;;6.63;5.20;;;16.40;99.90;;;;;;6276520;22;20926;-88
2022/08/21 04:08:10;;;;;;;8.73;5.50;;;16.30;99.90;;;;;;6248515;22;21051;-85
2022/08/21 04:10:39;;;;;;;12.20;6.77;;;16.30;99.90;;;;;;6248869;22;20448;-85
2022/08/21 04:13:07;;;;;;;13.33;5.90;;;16.30;99.90;;;;;;6249347;22;20398;-86
2022/08/21 04:15:33;;;;;;;7.23;6.07;;;16.30;99.90;;;;;;6248953;22;20425;-85
2022/08/21 04:17:58;;;;;;;10.50;5.90;;;16.30;99.90;;;;;;6248419;22;20913;-85
2022/08/21 04:20:25;;;;;;;11.90;5.93;;;16.30;99.90;;;;;;6249475;22;20247;-85
2022/08/21 04:22:51;;;;;;;5.53;5.00;;;16.20;99.90;;;;;;6249321;22;20205;-85
2022/08/21 04:25:19;;;;;;;9.23;5.13;;;16.20;1.00;;;;;;6249414;22;20417;-85
2022/08/21 04:27:46;;;;;;;15.07;6.10;;;16.20;1.00;;;;;;6248878;22;20387;-85
2022/08/21 04:30:13;;;;;;;17.30;5.83;;;16.20;1.00;;;;;;6249204;22;20398;-85
2022/08/21 04:32:41;;;;;;;7.30;5.33;;;16.20;1.00;;;;;;6249109;22;20557;-85
2022/08/21 04:35:09;;;;;;;10.93;5.87;;;16.20;1.00;;;;;;6249271;22;20434;-85
2022/08/21 04:37:35;;;;;;;7.20;5.23;;;16.20;1.00;;;;;;6248441;22;20390;-86
2022/08/21 04:40:01;;;;;;;7.43;5.07;;;16.20;1.00;;;;;;6249177;22;20423;-86
2022/08/21 04:42:28;;;;;;;7.73;4.80;;;16.20;1.00;;;;;;6248599;22;20382;-85
2022/08/21 04:44:54;;;;;;;15.30;5.10;;;16.20;1.00;;;;;;6249169;22;20474;-85
2022/08/21 04:47:21;;;;;;;9.10;5.20;;;16.20;1.00;;;;;;6248738;22;20386;-85
2022/08/21 04:49:46;;;;;;;13.10;5.77;;;16.20;1.00;;;;;;6248854;22;20394;-86
2022/08/21 04:52:15;;;;;;;12.77;4.67;;;16.30;1.00;;;;;;6249419;22;20412;-85
2022/08/21 04:54:44;;;;;;;9.63;5.57;;;16.30;1.00;;;;;;6249051;22;20673;-85
2022/08/21 04:57:11;;;;;;;6.90;4.60;;;16.30;1.00;;;;;;6248395;22;20393;-86
2022/08/21 04:59:46;;;;;;;9.60;5.17;;;16.40;1.00;;;;;;6275940;22;20375;-85
2022/08/21 05:02:13;;;;;;;8.90;6.10;;;16.40;99.90;;;;;;6249178;22;20512;-85
2022/08/21 05:04:44;;;;;;;6.60;4.33;;;16.50;99.90;;;;;;6248267;22;20449;-85
2022/08/21 05:07:24;;;;;;;10.97;5.40;;;16.60;99.90;;;;;;6248773;22;20386;-85
2022/08/21 05:09:50;;;;;;;8.83;5.33;;;16.60;99.90;;;;;;6248610;22;20390;-85
2022/08/21 05:12:16;;;;;;;10.00;4.50;;;16.70;99.90;;;;;;6248315;22;20868;-85
2022/08/21 05:14:42;;;;;;;6.50;4.33;;;16.70;99.90;;;;;;6248542;22;20457;-85
2022/08/21 05:17:08;;;;;;;9.33;5.20;;;16.80;99.90;;;;;;6248645;22;20156;-85
2022/08/21 05:19:34;;;;;;;7.70;5.20;;;16.90;99.90;;;;;;6248746;22;20190;-89
2022/08/21 05:22:00;;;;;;;11.27;5.30;;;16.90;40.50;;;;;;6248921;22;20382;-85
2022/08/21 05:24:27;;;;;;;16.13;5.40;;;17.00;1.00;;;;;;6248734;22;20251;-85
2022/08/21 05:26:53;;;;;;;11.80;4.40;;;18.20;1.00;;;;;;6247634;22;20379;-86
2022/08/21 05:29:18;;;;;;;6.60;3.80;;;21.40;1.00;;;;;;6248930;22;20437;-86
2022/08/21 05:31:45;;;;;;;8.60;4.00;;;24.20;99.90;;;;;;6248357;22;20483;-87
2022/08/21 05:34:12;;;;;;;7.57;3.50;;;26.40;99.90;;;;;;6249138;22;20180;-86
2022/08/21 05:36:37;;;;;;;6.67;3.20;;;28.30;99.90;;;;;;6247601;22;20395;-88
2022/08/21 05:39:03;;;;;;;9.53;3.43;;;29.90;99.90;;;;;;6248143;22;20383;-88
2022/08/21 05:41:29;;;;;;;9.93;4.00;;;31.30;99.90;;;;;;6248940;22;20152;-88
2022/08/21 05:43:54;;;;;;;7.10;3.03;;;32.70;99.90;;;;;;6248643;22;20176;-87
2022/08/21 05:46:20;;;;;;;6.80;3.63;;;34.00;99.90;;;;;;6247960;22;20152;-87
2022/08/21 05:48:45;;;;;;;6.00;3.27;;;35.20;99.90;;;;;;6249031;22;20209;-88
2022/08/21 05:51:14;;;;;;;4.57;3.27;;;36.90;99.90;;;;;;6249282;22;20160;-87
2022/08/21 05:53:41;;;;;;;6.20;2.87;;;38.90;99.90;;;;;;6249535;22;20734;-87
2022/08/21 05:56:08;;;;;;;6.40;3.13;;;40.90;99.90;;;;;;6248458;22;20387;-87
2022/08/21 05:58:34;;;;;;;4.43;2.97;;;42.70;99.70;;;;;;6249169;22;20407;-87
2022/08/21 06:01:02;;;;;;;8.53;3.00;;;44.30;93.40;;;;;;6249172;22;20857;-88
2022/08/21 06:03:31;;;;;;;4.77;2.60;;;45.90;86.60;;;;;;6248898;22;20434;-87
2022/08/21 06:05:57;;;;;;;6.60;2.27;;;47.30;75.90;;;;;;6248188;22;20919;-91
2022/08/21 06:08:23;;;;;;;10.80;3.10;;;48.50;63.80;;;;;;6248251;22;20743;-86
2022/08/21 06:10:53;;;;;;;7.07;2.83;;;49.70;55.10;;;;;;6248383;22;20463;-87
2022/08/21 06:13:20;;;;;;;4.57;2.80;;;50.60;46.50;;;;;;6248011;22;20551;-86
2022/08/21 06:15:46;;;;;;;6.25;2.90;;;51.50;39.50;;;;;;6247765;22;20239;-86
2022/08/21 06:18:12;;;;;;;4.30;2.60;;;52.30;32.90;;;;;;6274652;22;20151;-87
2022/08/21 06:20:38;;;;;;;4.57;2.30;;;53.00;27.70;;;;;;6248133;22;20159;-86
2022/08/21 06:23:04;;;;;;;6.40;2.70;;;53.60;23.50;;;;;;6248089;22;20281;-87
2022/08/21 06:25:30;;;;;;;6.57;2.35;;;53.90;18.80;;;;;;6249295;22;20186;-86
2022/08/21 06:28:07;;;;;;;4.15;2.90;;;54.10;14.70;;;;;;6247574;22;20577;-86
2022/08/21 06:30:33;;;;;;;3.35;2.13;;;54.40;11.30;;;;;;6248516;22;20148;-86
2022/08/21 06:32:59;;;;;;;6.00;2.80;;;54.70;8.50;;;;;;6247918;22;20183;-87
2022/08/21 06:35:24;;;;;;;8.18;3.00;;;54.90;6.20;;;;;;6247650;22;20516;-87
2022/08/21 06:37:50;;;;;;;5.60;2.20;;;55.20;4.30;;;;;;6247247;22;20151;-87
2022/08/21 06:40:16;;;;;;;3.90;2.05;;;55.50;1.40;;;;;;6248062;22;20166;-86
2022/08/21 06:42:42;;;;;;;4.10;2.28;;;55.80;1.00;;;;;;6248078;22;20176;-88
2022/08/21 06:45:08;;;;;;;7.30;2.63;;;56.10;1.00;;;;;;6247583;22;20152;-86
2022/08/21 06:47:34;;;;;;;4.80;2.17;;;56.10;1.00;;;;;;6248039;22;20897;-86
2022/08/21 06:50:00;;;;;;;3.97;2.33;;;56.40;1.00;;;;;;6248129;22;20155;-86
2022/08/21 06:52:25;;;;;;;3.17;1.90;;;56.60;1.00;;;;;;6247953;22;20159;-87
2022/08/21 06:54:51;;;;;;;3.88;2.10;;;56.70;1.00;;;;;;6247732;22;20866;-86
2022/08/21 07:00:29;;;;;;;5.40;2.15;;;56.90;1.00;;;;;;6277315;22;20614;-86
2022/08/21 07:02:54;;;;;;;7.13;2.25;;;55.50;1.00;;;;;;6251622;22;20178;-86
2022/08/21 07:05:21;;;;;;;6.03;2.17;;;54.60;1.00;;;;;;6250345;22;20515;-86
2022/08/21 07:07:47;;;;;;;6.80;2.83;;;54.10;1.00;;;;;;6249084;22;20152;-87
2022/08/21 07:10:16;;;;;;;4.38;2.30;;;54.20;1.00;;;;;;6249913;22;20238;-88
2022/08/21 07:12:44;;;;;;;7.75;2.35;;;55.40;1.00;;;;;;6250078;22;20175;-87
2022/08/21 07:15:10;;;;;;;5.40;2.15;;;56.30;1.00;;;;;;6249707;22;20836;-86
2022/08/21 07:17:36;;;;;;;4.15;2.03;;;57.10;1.00;;;;;;6249359;22;20234;-86
2022/08/21 07:20:03;;;;;;;4.68;2.00;;;57.40;1.00;;;;;;6250293;22;20163;-86
2022/08/21 07:22:29;;;;;;;7.38;2.40;;;57.80;1.00;;;;;;6250125;22;20150;-86
2022/08/21 07:24:58;;;;;;;5.00;2.05;;;56.30;1.00;;;;;;6276715;22;20223;-86
2022/08/21 07:27:24;;;;;;;5.68;2.05;;;54.80;1.00;;;;;;6276388;22;20179;-89
2022/08/21 07:29:52;;;;;;;6.72;2.58;;;54.10;1.00;;;;;;6249383;22;20593;-85
2022/08/21 07:32:17;;;;;;;4.20;1.58;;;54.40;1.00;;;;;;6249976;22;20156;-85
2022/08/21 07:34:43;;;;;;;4.78;1.88;;;55.10;1.00;;;;;;6249948;22;20206;-87
2022/08/21 07:37:08;;;;;;;5.53;1.85;;;55.60;1.00;;;;;;6249855;22;20162;-85
2022/08/21 07:39:34;;;;;;;4.85;1.90;;;56.00;1.00;;;;;;6250306;22;20152;-85
2022/08/21 07:42:00;;;;;;;4.45;1.98;;;56.30;1.00;;;;;;6250638;22;20156;-85
2022/08/21 07:44:25;;;;;;;5.00;2.00;;;56.40;1.00;;;;;;6250247;22;20501;-85
2022/08/21 07:46:51;;;;;;;4.45;1.80;;;55.90;1.00;;;;;;6249682;22;20177;-85
2022/08/21 07:49:16;;;;;;;2.70;1.23;;;55.70;1.00;;;;;;6249741;22;20162;-85
2022/08/21 07:51:42;;;;;;;3.38;1.92;;;56.20;1.00;;;;;;6250000;22;20255;-85
2022/08/21 07:54:08;;;;;;;6.03;2.70;;;56.80;1.00;;;;;;6249910;22;20168;-85
2022/08/21 07:56:34;;;;;;;3.67;1.30;;;57.10;1.00;;;;;;6249240;22;20179;-85
2022/08/21 07:59:02;;;;;;;2.25;1.48;;;57.20;1.00;;;;;;6249955;22;20159;-86
2022/08/21 08:01:28;;;;;;;5.03;2.00;;;56.50;1.00;;;;;;6249960;22;20211;-86
2022/08/21 08:03:54;;;;;;;5.03;1.83;;;56.20;1.00;;;;;;6249762;22;20184;-87
2022/08/21 08:06:20;;;;;;;3.17;1.45;;;56.70;1.00;;;;;;6249897;22;20752;-86
2022/08/21 08:08:46;;;;;;;4.47;1.70;;;57.10;1.00;;;;;;6249950;22;20202;-87
2022/08/21 08:11:15;;;;;;;2.95;1.35;;;57.20;1.00;;;;;;6250188;22;20159;-86
2022/08/21 08:14:03;;;;;;;3.63;1.23;;;56.80;1.00;;;;;;6250536;22;20379;-86
2022/08/21 08:16:29;;;;;;;2.92;1.30;;;54.90;1.00;;;;;;6248568;22;20209;-86
2022/08/21 08:19:40;;;;;;;3.95;1.60;;;54.90;1.00;;;;;;6251348;22;20201;-87
2022/08/21 08:25:50;;;;;;;6.47;1.27;;;54.80;1.00;;;;;;6279454;22;20197;-86
2022/08/21 08:29:02;;;;;;;4.38;2.00;;;55.20;1.00;;;;;;6251845;22;20147;-86
2022/08/21 08:31:34;;;;;;;3.77;1.30;;;55.50;1.00;;;;;;6252166;22;20143;-86
2022/08/21 08:34:06;;;;;;;5.00;1.40;;;52.70;1.00;;;;;;6250383;22;20171;-86
2022/08/21 08:36:39;;;;;;;3.57;1.93;;;50.90;1.00;;;;;;6249870;22;20475;-86
2022/08/21 08:45:32;;;;;;;2.17;1.20;;;52.80;1.00;;;;;;6277120;22;20215;-87
2022/08/21 08:48:07;;;;;;;3.57;1.40;;;52.20;1.00;;;;;;6221598;22;20157;-87
2022/08/21 08:50:56;;;;;;;3.73;1.60;;;51.20;1.00;;;;;;6249899;22;20440;-87
2022/08/21 08:53:54;;;;;;;4.50;1.30;;;51.70;1.00;;;;;;6277345;22;20387;-86
2022/08/21 08:56:29;;;;;;;3.13;1.67;;;51.70;1.00;;;;;;6248596;22;20426;-86
2022/08/21 08:59:00;;;;;;;3.60;1.57;;;50.20;1.00;;;;;;6249713;22;20374;-86
2022/08/21 09:01:32;;;;;;;4.70;1.60;;;50.40;1.00;;;;;;6249975;22;20374;-86
2022/08/21 09:04:23;;;;;;;3.60;1.93;;;50.50;1.00;;;;;;6268555;22;20488;-86
2022/08/21 09:07:38;;;;;;;4.10;1.50;;;50.90;1.00;;;;;;6212514;23;20418;-86
2022/08/21 09:10:20;;;;;;;3.10;1.47;;;51.30;1.00;;;;;;6222232;22;20389;-86
2022/08/21 09:12:55;;;;;;;3.77;1.50;;;51.60;1.00;;;;;;6277239;22;20584;-87
2022/08/21 09:15:36;;;;;;;3.10;1.37;;;51.90;1.00;;;;;;6249782;22;20892;-88
2022/08/21 09:18:15;;;;;;;2.50;1.30;;;51.70;1.00;;;;;;6250006;22;20371;-88
2022/08/21 09:20:47;;;;;;;3.10;1.20;;;49.10;1.00;;;;;;6249622;22;20371;-87
2022/08/21 09:23:46;;;;;;;3.60;1.10;;;47.70;1.00;;;;;;6250447;22;20903;-86
2022/08/21 09:26:16;;;;;;;4.27;1.70;;;45.90;1.00;;;;;;6249745;22;20383;-87
2022/08/21 09:28:44;;;;;;;3.67;1.20;;;46.10;1.00;;;;;;6249448;22;20378;-86
2022/08/21 09:31:21;;;;;;;3.40;1.33;;;44.90;1.00;;;;;;6274850;22;20386;-85
2022/08/21 09:33:47;;;;;;;4.60;1.40;;;43.60;1.00;;;;;;6249641;22;20430;-86
2022/08/21 09:36:25;;;;;;;4.30;1.40;;;44.50;1.00;;;;;;6247660;22;20484;-87
2022/08/21 09:38:55;;;;;;;3.50;1.33;;;45.40;1.00;;;;;;6248651;22;20156;-86
2022/08/21 09:41:29;;;;;;;4.10;1.60;;;45.60;1.00;;;;;;6249037;22;20382;-86
2022/08/21 09:43:55;;;;;;;2.80;1.40;;;46.00;1.00;;;;;;6248373;22;20398;-86
2022/08/21 09:46:23;;;;;;;3.93;1.57;;;46.60;1.00;;;;;;6247709;22;20394;-86
2022/08/21 09:48:54;;;;;;;2.67;1.23;;;47.00;1.00;;;;;;6248018;22;20159;-86
2022/08/21 09:51:26;;;;;;;3.03;1.10;;;47.50;1.00;;;;;;6248405;22;20454;-88
2022/08/21 09:54:12;;;;;;;2.93;1.20;;;47.90;1.00;;;;;;6248897;22;20407;-87
2022/08/21 09:59:46;;;;;;;4.20;1.57;;;47.70;1.00;;;;;;6275583;22;20380;-87
2022/08/21 10:02:34;;;;;;;2.60;1.20;;;47.30;1.00;;;;;;6248546;22;20401;-87
2022/08/21 10:05:15;;;;;;;2.50;1.20;;;46.60;1.00;;;;;;6248884;22;20509;-86
2022/08/21 10:07:41;;;;;;;6.13;1.70;;;45.90;1.00;;;;;;6247697;22;20397;-86
2022/08/21 10:10:40;;;;;;;4.83;1.90;;;45.30;1.00;;;;;;6248702;22;20383;-85
2022/08/21 10:13:38;;;;;;;4.33;1.83;;;44.80;1.00;;;;;;6167130;22;20482;-86
2022/08/21 10:16:25;;;;;;;4.90;1.70;;;44.50;1.00;;;;;;6248632;22;20442;-85
2022/08/21 10:19:00;;;;;;;5.00;1.53;;;44.20;1.00;;;;;;6247448;22;20386;-91
2022/08/21 10:21:59;;;;;;;4.03;1.90;;;44.30;1.00;;;;;;6245391;22;20452;-86
2022/08/21 10:24:57;;;;;;;4.37;2.20;;;44.40;1.00;;;;;;6220829;22;20483;-86
2022/08/21 10:27:33;;;;;;;5.03;1.50;;;44.60;1.00;;;;;;6245783;22;20815;-86
2022/08/21 10:30:11;;;;;;;3.07;1.50;;;44.60;1.00;;;;;;6246135;22;20397;-86
2022/08/21 10:33:05;;;;;;;6.67;1.60;;;44.60;1.00;;;;;;6245735;22;20409;-89
2022/08/21 10:35:48;;;;;;;4.13;1.60;;;44.50;1.00;;;;;;6246315;22;20544;-87
2022/08/21 10:39:05;;;;;;;7.37;1.60;;;44.50;1.00;;;;;;6246846;22;20390;-88
2022/08/21 10:41:42;;;;;;;5.90;1.50;;;44.70;1.00;;;;;;6165136;22;20462;-86
2022/08/21 10:44:34;;;;;;;2.00;1.33;;;44.70;1.00;;;;;;6246531;22;20403;-86
2022/08/21 10:47:13;;;;;;;7.20;1.80;;;44.50;1.00;;;;;;6273593;22;20459;-86
2022/08/21 10:49:54;;;;;;;3.33;1.63;;;44.30;1.00;;;;;;6246703;22;20905;-86
2022/08/21 10:52:25;;;;;;;3.03;1.43;;;44.20;1.00;;;;;;6246926;22;20381;-87
2022/08/21 10:55:07;;;;;;;5.07;1.97;;;43.90;1.00;;;;;;6246764;22;20430;-88
2022/08/21 10:57:45;;;;;;;4.43;1.70;;;44.10;1.00;;;;;;6246816;22;20375;-86
2022/08/21 11:00:15;;;;;;;3.73;1.60;;;43.80;1.00;;;;;;6246669;22;20409;-87
2022/08/21 11:02:46;;;;;;;2.40;1.33;;;43.50;1.00;;;;;;6247229;22;20430;-86
2022/08/21 11:05:28;;;;;;;3.43;1.43;;;43.60;1.00;;;;;;6246975;22;20751;-88
2022/08/21 11:08:00;;;;;;;4.73;1.30;;;43.90;1.00;;;;;;6246008;22;20383;-91
2022/08/21 11:10:41;;;;;;;5.03;1.40;;;44.20;1.00;;;;;;6274787;22;20413;-90
2022/08/21 11:13:46;;;;;;;2.40;1.60;;;44.40;1.00;;;;;;6247415;22;20433;-91
2022/08/21 11:16:36;;;;;;;3.83;1.40;;;44.60;1.00;;;;;;6246254;22;20422;-90
2022/08/21 11:19:17;;;;;;;2.33;1.50;;;44.90;1.00;;;;;;6247409;22;20469;-91
2022/08/21 11:21:53;;;;;;;2.80;1.30;;;45.10;1.00;;;;;;6247765;22;20449;-90
2022/08/21 11:24:28;;;;;;;3.70;1.80;;;45.30;1.00;;;;;;6247994;22;20402;-91
2022/08/21 11:27:12;;;;;;;3.63;1.30;;;45.40;1.00;;;;;;6247774;22;20390;-91
2022/08/21 11:29:41;;;;;;;2.93;1.53;;;45.30;1.00;;;;;;6276302;22;20359;-91
2022/08/21 11:32:44;;;;;;;3.30;1.23;;;45.20;1.00;;;;;;6276258;22;20887;-91
2022/08/21 11:35:42;;;;;;;5.53;1.50;;;45.10;1.00;;;;;;6249699;22;20462;-91
2022/08/21 11:38:27;;;;;;;4.30;1.30;;;44.90;1.00;;;;;;6246901;22;20383;-91
2022/08/21 11:41:32;;;;;;;5.40;1.70;;;44.50;1.00;;;;;;6247992;22;20409;-90
2022/08/21 11:44:02;;;;;;;3.63;1.30;;;44.10;1.00;;;;;;6245473;22;20402;-90
2022/08/21 11:46:49;;;;;;;3.40;1.40;;;43.60;1.00;;;;;;6248948;22;20371;-90
2022/08/21 11:49:54;;;;;;;3.23;1.50;;;43.20;1.00;;;;;;6249544;22;20378;-90
2022/08/21 11:52:35;;;;;;;6.10;1.80;;;43.00;1.00;;;;;;6275029;22;20573;-90
2022/08/21 11:55:08;;;;;;;2.50;1.20;;;42.80;1.00;;;;;;6253682;22;20414;-90
2022/08/21 11:57:45;;;;;;;3.20;1.30;;;42.50;1.00;;;;;;6276035;22;20398;-91
2022/08/21 12:00:18;;;;;;;3.20;1.43;;;42.70;1.00;;;;;;6248149;22;20378;-91
2022/08/21 12:02:55;;;;;;;3.60;1.10;;;43.00;1.00;;;;;;6247843;22;21267;-89
2022/08/21 12:05:31;;;;;;;2.80;1.20;;;43.00;1.00;;;;;;6247705;22;20455;-89
2022/08/21 12:08:28;;;;;;;3.97;1.23;;;42.50;1.00;;;;;;6246480;22;20386;-89
2022/08/21 12:11:15;;;;;;;5.23;1.73;;;41.90;1.00;;;;;;6247074;22;20486;-89
2022/08/21 12:14:15;;;;;;;4.90;1.10;;;41.80;1.00;;;;;;6275011;22;20394;-88
2022/08/21 12:16:44;;;;;;;3.37;1.30;;;41.60;1.00;;;;;;6271849;22;20478;-89
2022/08/21 12:19:12;;;;;;;2.87;1.27;;;41.40;1.00;;;;;;6247022;22;20379;-90
2022/08/21 12:22:08;;;;;;;5.23;1.50;;;41.60;1.00;;;;;;6272475;22;20478;-88
2022/08/21 12:24:48;;;;;;;3.70;1.33;;;41.90;1.00;;;;;;6248531;22;20489;-89
2022/08/21 12:27:16;;;;;;;2.73;1.10;;;42.50;1.00;;;;;;6245038;22;20877;-90
2022/08/21 12:29:49;;;;;;;5.20;1.67;;;42.70;1.00;;;;;;6247788;22;20395;-90
2022/08/21 12:32:15;;;;;;;2.60;1.20;;;42.90;1.00;;;;;;6248545;22;20371;-91
2022/08/21 12:34:47;;;;;;;2.33;1.00;;;43.00;1.00;;;;;;6246026;22;20438;-90
2022/08/21 12:37:41;;;;;;;4.10;1.00;;;42.90;1.00;;;;;;6273501;22;20133;-90
2022/08/21 12:40:20;;;;;;;2.53;1.00;;;42.90;1.00;;;;;;6273950;22;20881;-90
2022/08/21 12:42:50;;;;;;;3.13;1.20;;;42.60;1.00;;;;;;6272209;22;20395;-89
2022/08/21 12:45:27;;;;;;;5.73;1.47;;;42.40;1.00;;;;;;6274018;22;20445;-89
2022/08/21 12:47:59;;;;;;;3.17;1.03;;;42.30;1.00;;;;;;6251335;22;20386;-88
2022/08/21 12:50:37;;;;;;;2.00;1.13;;;42.20;1.00;;;;;;6276178;22;20461;-88
2022/08/21 12:53:10;;;;;;;5.63;1.60;;;42.10;1.00;;;;;;6276204;22;20429;-89
2022/08/21 12:55:41;;;;;;;2.40;1.00;;;41.80;1.00;;;;;;6276853;22;20417;-88
2022/08/21 12:58:16;;;;;;;3.30;1.40;;;41.60;1.00;;;;;;6249736;22;20372;-89
2022/08/21 13:00:51;;;;;;;4.80;1.20;;;41.50;1.00;;;;;;6279052;22;20698;-89
2022/08/21 13:03:20;;;;;;;1.60;1.07;;;41.20;1.00;;;;;;6252189;22;20413;-90
2022/08/21 13:05:46;;;;;;;5.93;1.57;;;41.10;1.00;;;;;;6253796;22;20411;-89
2022/08/21 13:08:13;;;;;;;4.70;1.50;;;40.90;1.00;;;;;;6250104;22;20437;-90
2022/08/21 13:10:40;;;;;;;3.43;1.20;;;40.70;1.00;;;;;;6250678;22;20316;-89
2022/08/21 13:13:12;;;;;;;3.73;1.60;;;40.60;1.00;;;;;;6251850;22;20406;-89
2022/08/21 13:15:39;;;;;;;4.07;1.60;;;40.50;1.00;;;;;;6252051;22;20414;-89
2022/08/21 13:18:06;;;;;;;3.93;1.30;;;40.60;1.00;;;;;;6278960;22;20420;-88
2022/08/21 13:20:38;;;;;;;3.57;1.13;;;40.40;1.00;;;;;;6251810;22;20445;-88
2022/08/21 13:23:27;;;;;;;1.80;1.23;;;40.00;1.00;;;;;;6249136;22;20960;-89
2022/08/21 13:25:54;;;;;;;4.20;1.50;;;39.70;1.00;;;;;;6275240;22;20391;-89
2022/08/21 13:28:20;;;;;;;3.03;1.30;;;39.30;1.00;;;;;;6274769;22;20383;-89